Time;durP1;ratioP1;P1;durP2;ratioP2;P2;SDS_P1;SDS_P2;PMS_P1;PMS_P2;Temp;Humidity;BMP_temperature;BMP_pressure;BME280_temperature;BME280_humidity;BME280_pressure;Samples;Min_cycle;Max_cycle;Signal;HPM_P1;HPM_P2
2022/12/03 00:01:38;;;;;;;23.42;11.38;;;3.20;99.90;;;;;;5076384;28;20046;-82
2022/12/03 00:04:05;;;;;;;22.42;10.43;;;3.30;99.90;;;;;;5059831;28;20059;-83
2022/12/03 00:06:31;;;;;;;24.80;10.55;;;3.90;99.90;;;;;;5059840;28;20040;-83
2022/12/03 00:08:58;;;;;;;24.88;11.00;;;3.30;99.90;;;;;;5076873;28;20551;-83
2022/12/03 00:11:25;;;;;;;19.38;9.32;;;3.30;99.90;;;;;;5060236;28;20044;-83
2022/12/03 00:13:51;;;;;;;23.20;10.65;;;3.30;99.90;;;;;;5076013;28;20075;-83
2022/12/03 00:16:18;;;;;;;19.85;9.60;;;3.30;99.90;;;;;;5093371;28;20036;-82
2022/12/03 00:18:44;;;;;;;21.30;10.30;;;3.30;99.90;;;;;;5059680;28;20094;-82
2022/12/03 00:21:11;;;;;;;19.20;9.85;;;3.30;99.90;;;;;;5076426;28;20802;-83
2022/12/03 00:23:38;;;;;;;19.48;9.73;;;3.40;99.90;;;;;;5109343;28;20046;-82
2022/12/03 00:26:04;;;;;;;19.95;9.90;;;3.70;99.90;;;;;;5076090;28;20504;-83
2022/12/03 00:28:31;;;;;;;18.30;9.45;;;3.40;99.90;;;;;;5076072;28;20082;-83
2022/12/03 00:30:58;;;;;;;19.50;10.50;;;3.70;99.90;;;;;;5059534;28;20515;-83
2022/12/03 00:33:24;;;;;;;17.63;9.57;;;3.40;99.90;;;;;;5076319;28;20040;-83
2022/12/03 00:35:51;;;;;;;19.00;9.70;;;3.40;99.90;;;;;;5092458;28;20040;-83
2022/12/03 00:38:18;;;;;;;17.63;9.00;;;3.70;99.90;;;;;;5092936;28;20032;-83
2022/12/03 00:40:45;;;;;;;20.08;9.60;;;3.40;99.90;;;;;;5092708;28;20032;-83
2022/12/03 00:43:11;;;;;;;19.48;10.45;;;3.40;99.90;;;;;;5076465;28;20044;-82
2022/12/03 00:45:38;;;;;;;21.10;10.15;;;3.40;99.90;;;;;;5092255;28;20066;-83
2022/12/03 00:48:05;;;;;;;20.00;10.15;;;3.40;99.90;;;;;;5094908;28;20042;-83
2022/12/03 00:50:31;;;;;;;18.40;9.60;;;3.40;99.90;;;;;;5113444;28;20036;-83
2022/12/03 00:52:58;;;;;;;21.48;10.98;;;4.20;99.90;;;;;;5080051;28;20039;-82
2022/12/03 00:55:25;;;;;;;25.40;10.43;;;3.60;99.90;;;;;;5063585;28;20036;-83
2022/12/03 00:57:51;;;;;;;21.23;10.27;;;3.40;99.90;;;;;;5063688;28;20123;-83
2022/12/03 01:00:23;;;;;;;17.40;9.50;;;3.50;99.90;;;;;;5096937;28;20078;-82
2022/12/03 01:02:51;;;;;;;21.63;10.05;;;3.50;99.90;;;;;;5080489;28;20044;-83
2022/12/03 01:05:18;;;;;;;21.40;9.85;;;3.70;99.90;;;;;;5096224;28;20516;-83
2022/12/03 01:07:46;;;;;;;16.90;8.98;;;3.40;99.90;;;;;;5096111;28;20127;-83
2022/12/03 01:10:13;;;;;;;21.15;10.52;;;3.40;99.90;;;;;;5096113;28;20223;-83
2022/12/03 01:12:40;;;;;;;21.33;10.15;;;3.40;99.90;;;;;;5082485;28;20028;-83
2022/12/03 01:15:09;;;;;;;19.08;9.82;;;3.40;99.90;;;;;;5063432;28;20035;-83
2022/12/03 01:17:35;;;;;;;17.63;9.05;;;3.40;99.90;;;;;;5096136;28;20036;-83
2022/12/03 01:20:05;;;;;;;19.60;9.50;;;4.10;99.90;;;;;;5079252;28;20537;-83
2022/12/03 01:22:32;;;;;;;19.92;9.57;;;3.40;99.90;;;;;;5096211;28;20658;-83
2022/12/03 01:24:58;;;;;;;20.52;10.25;;;3.40;99.90;;;;;;5062894;28;20135;-83
2022/12/03 01:27:25;;;;;;;20.65;10.35;;;3.30;99.90;;;;;;5063041;28;20040;-82
2022/12/03 01:29:52;;;;;;;18.73;9.85;;;3.40;99.90;;;;;;5096263;28;20044;-83
2022/12/03 01:32:18;;;;;;;21.85;10.63;;;4.10;99.90;;;;;;5079387;28;20059;-83
2022/12/03 01:34:47;;;;;;;18.45;9.60;;;3.30;99.90;;;;;;5079221;28;20039;-82
2022/12/03 01:37:15;;;;;;;21.00;10.30;;;3.30;99.90;;;;;;5096205;28;20040;-83
2022/12/03 01:39:42;;;;;;;20.45;10.50;;;3.70;99.90;;;;;;5079297;28;20050;-82
2022/12/03 01:42:17;;;;;;;19.40;9.88;;;3.30;99.90;;;;;;5095922;28;20039;-83
2022/12/03 01:44:44;;;;;;;19.88;10.25;;;3.30;99.90;;;;;;5095699;28;20446;-83
2022/12/03 01:47:18;;;;;;;18.38;9.82;;;3.80;99.90;;;;;;5095637;28;20039;-82
2022/12/03 01:49:52;;;;;;;19.10;9.88;;;3.30;99.90;;;;;;5112021;28;20566;-83
2022/12/03 01:52:23;;;;;;;19.52;10.07;;;3.30;99.90;;;;;;5112145;28;20082;-83
2022/12/03 01:54:53;;;;;;;18.35;9.35;;;3.30;99.90;;;;;;5112153;28;20032;-83
2022/12/03 01:57:42;;;;;;;19.95;10.07;;;3.40;99.90;;;;;;5095435;28;20122;-83
2022/12/03 02:00:19;;;;;;;19.42;10.35;;;3.30;99.90;;;;;;5094897;28;20036;-83
2022/12/03 02:02:49;;;;;;;20.00;10.30;;;3.20;99.90;;;;;;5095370;28;20047;-83
2022/12/03 02:05:19;;;;;;;21.85;10.68;;;3.20;99.90;;;;;;5095221;28;20066;-83
2022/12/03 02:07:46;;;;;;;19.75;10.07;;;3.30;99.90;;;;;;5095339;28;20044;-83
2022/12/03 02:10:15;;;;;;;19.08;9.98;;;3.90;99.90;;;;;;5112060;28;20044;-83
2022/12/03 02:13:03;;;;;;;20.35;10.55;;;3.30;99.90;;;;;;5094901;28;20109;-83
2022/12/03 02:15:35;;;;;;;22.33;10.48;;;3.20;99.90;;;;;;5094894;28;20555;-83
2022/12/03 02:18:02;;;;;;;18.73;10.23;;;3.90;99.90;;;;;;5078546;28;20412;-83
2022/12/03 02:20:35;;;;;;;21.30;10.65;;;3.30;99.90;;;;;;5078778;28;20036;-83
2022/12/03 02:23:16;;;;;;;18.77;10.18;;;3.30;99.90;;;;;;5095112;28;20475;-82
2022/12/03 02:25:43;;;;;;;19.05;10.00;;;3.30;99.90;;;;;;5094702;28;20513;-83
2022/12/03 02:28:10;;;;;;;22.27;10.80;;;4.10;99.90;;;;;;5061558;28;20043;-83
2022/12/03 02:30:37;;;;;;;23.35;10.48;;;4.10;99.90;;;;;;5062217;28;20039;-83
2022/12/03 02:33:03;;;;;;;20.88;10.52;;;3.20;99.90;;;;;;5077896;28;20040;-83
2022/12/03 02:35:35;;;;;;;20.90;10.68;;;3.30;99.90;;;;;;5078213;28;20043;-83
2022/12/03 02:38:19;;;;;;;20.25;10.18;;;3.30;99.90;;;;;;5094637;28;20385;-83
2022/12/03 02:40:50;;;;;;;21.52;10.13;;;3.20;99.90;;;;;;5074912;28;20043;-83
2022/12/03 02:43:19;;;;;;;21.02;10.23;;;3.20;99.90;;;;;;5074248;28;20044;-83
2022/12/03 02:45:49;;;;;;;18.55;9.80;;;3.30;99.90;;;;;;5058207;28;20047;-83
2022/12/03 02:48:37;;;;;;;20.63;11.15;;;3.30;99.90;;;;;;5074586;28;20127;-83
2022/12/03 02:51:09;;;;;;;19.70;10.18;;;3.20;99.90;;;;;;5074569;28;20040;-83
2022/12/03 02:53:43;;;;;;;19.55;10.40;;;3.30;99.90;;;;;;5091040;28;20036;-83
2022/12/03 02:56:14;;;;;;;20.23;10.05;;;3.30;99.90;;;;;;5073940;28;20036;-82
2022/12/03 02:58:42;;;;;;;23.15;10.57;;;3.30;99.90;;;;;;5075318;28;20040;-83
2022/12/03 03:01:09;;;;;;;22.35;10.38;;;3.70;99.90;;;;;;5094441;28;20035;-83
2022/12/03 03:03:37;;;;;;;20.80;10.60;;;3.30;99.90;;;;;;5094241;28;20090;-83
2022/12/03 03:06:05;;;;;;;20.13;10.32;;;3.40;99.90;;;;;;5077532;28;20052;-83
2022/12/03 03:08:32;;;;;;;19.38;10.27;;;3.20;99.90;;;;;;5094295;28;20043;-83
2022/12/03 03:11:00;;;;;;;19.17;10.73;;;3.20;99.90;;;;;;5093901;28;20040;-83
2022/12/03 03:13:30;;;;;;;19.00;10.07;;;3.20;99.90;;;;;;5061141;28;20075;-83
2022/12/03 03:15:57;;;;;;;20.52;11.10;;;3.50;99.90;;;;;;5094012;28;20076;-83
2022/12/03 03:18:23;;;;;;;20.75;9.98;;;3.20;99.90;;;;;;5077518;28;20093;-83
2022/12/03 03:20:50;;;;;;;20.17;10.55;;;3.50;99.90;;;;;;5076832;28;20032;-83
2022/12/03 03:23:21;;;;;;;20.00;10.27;;;3.10;99.90;;;;;;5076659;28;20469;-83
2022/12/03 03:25:55;;;;;;;19.27;9.82;;;3.10;99.90;;;;;;5093579;28;20381;-83
2022/12/03 03:28:22;;;;;;;24.70;10.98;;;3.10;99.90;;;;;;5093523;28;20571;-83
2022/12/03 03:30:50;;;;;;;21.33;9.93;;;3.50;99.90;;;;;;5060536;28;20054;-82
2022/12/03 03:33:17;;;;;;;20.42;10.07;;;3.10;99.90;;;;;;5076845;28;20040;-83
2022/12/03 03:35:46;;;;;;;20.63;10.25;;;3.10;99.90;;;;;;5077229;28;20442;-83
2022/12/03 03:38:13;;;;;;;21.25;11.20;;;3.10;99.90;;;;;;5093597;28;20424;-82
2022/12/03 03:40:40;;;;;;;20.67;10.95;;;3.10;99.90;;;;;;5077172;28;20042;-82
2022/12/03 03:43:07;;;;;;;20.95;10.77;;;3.10;99.90;;;;;;5076653;28;20047;-83
2022/12/03 03:45:34;;;;;;;20.40;9.98;;;3.60;99.90;;;;;;5060315;28;20080;-83
2022/12/03 03:48:01;;;;;;;21.55;11.07;;;3.10;99.90;;;;;;5060070;28;20504;-83
2022/12/03 03:50:30;;;;;;;20.33;9.55;;;3.10;99.90;;;;;;5076990;28;20082;-83
2022/12/03 03:52:58;;;;;;;22.50;11.35;;;3.10;99.90;;;;;;5110018;28;20119;-83
2022/12/03 03:55:25;;;;;;;20.77;10.52;;;3.10;99.90;;;;;;5060300;28;20495;-83
2022/12/03 03:57:52;;;;;;;20.60;10.48;;;3.60;99.90;;;;;;5060315;28;20070;-83
2022/12/03 04:00:18;;;;;;;20.85;10.43;;;3.10;99.90;;;;;;5076426;28;20047;-83
2022/12/03 04:02:45;;;;;;;21.15;10.90;;;3.00;99.90;;;;;;5076511;28;20036;-83
2022/12/03 04:05:19;;;;;;;21.63;11.07;;;3.00;99.90;;;;;;5059591;28;20063;-83
2022/12/03 04:07:46;;;;;;;24.40;11.73;;;3.10;99.90;;;;;;5092783;28;20460;-83
2022/12/03 04:12:59;;;;;;;21.83;9.90;;;3.00;99.90;;;;;;5095584;28;20048;-83
2022/12/03 04:15:29;;;;;;;21.60;11.38;;;3.00;99.90;;;;;;5092690;28;20047;-83
2022/12/03 04:20:41;;;;;;;21.00;11.38;;;3.00;99.90;;;;;;5095817;28;20047;-83
2022/12/03 04:23:08;;;;;;;21.27;10.20;;;3.90;99.90;;;;;;5059402;28;20047;-82
2022/12/03 04:28:48;;;;;;;22.50;10.95;;;3.00;99.90;;;;;;5052697;28;20068;-83
2022/12/03 04:36:46;;;;;;;21.40;10.77;;;3.00;99.90;;;;;;5095016;28;20047;-83
2022/12/03 04:39:13;;;;;;;21.45;10.57;;;3.00;99.90;;;;;;5092209;28;20139;-83
2022/12/03 04:41:39;;;;;;;21.17;10.77;;;3.00;99.90;;;;;;5076087;28;20123;-83
2022/12/03 04:46:51;;;;;;;18.85;10.25;;;3.50;99.90;;;;;;5109147;28;20043;-82
2022/12/03 04:49:18;;;;;;;22.25;11.00;;;3.00;99.90;;;;;;5059701;28;20464;-83
2022/12/03 04:51:45;;;;;;;22.75;11.20;;;3.00;99.90;;;;;;5059580;28;20036;-83
2022/12/03 04:54:11;;;;;;;22.10;10.68;;;3.00;99.90;;;;;;5092110;28;20070;-82
2022/12/03 04:56:38;;;;;;;23.08;11.40;;;3.40;99.90;;;;;;5093026;28;20070;-82
2022/12/03 04:59:05;;;;;;;21.88;10.38;;;3.60;99.90;;;;;;5075930;28;20040;-82
2022/12/03 05:01:31;;;;;;;23.65;10.40;;;2.90;99.90;;;;;;5108821;28;20492;-82
2022/12/03 05:03:58;;;;;;;21.85;10.57;;;2.90;99.90;;;;;;5059145;28;20101;-83
2022/12/03 05:06:25;;;;;;;20.77;11.05;;;2.80;99.90;;;;;;5075756;28;20118;-83
2022/12/03 05:08:52;;;;;;;20.80;10.27;;;2.90;99.90;;;;;;5059328;28;20052;-83
2022/12/03 05:11:18;;;;;;;19.05;10.38;;;2.80;99.90;;;;;;5075675;28;20072;-82
2022/12/03 05:13:45;;;;;;;23.90;11.60;;;2.80;99.90;;;;;;5092266;28;20550;-83
2022/12/03 05:16:12;;;;;;;21.33;10.85;;;2.80;99.90;;;;;;5059181;28;20118;-82
2022/12/03 05:18:38;;;;;;;23.98;11.73;;;2.80;99.90;;;;;;5108668;28;20089;-83
2022/12/03 05:21:05;;;;;;;23.30;11.25;;;3.80;99.90;;;;;;5092312;28;20524;-83
2022/12/03 05:23:32;;;;;;;22.48;10.52;;;2.80;99.90;;;;;;5092073;28;20051;-83
2022/12/03 05:25:58;;;;;;;21.30;10.50;;;2.80;99.90;;;;;;5059061;28;20040;-83
2022/12/03 05:28:25;;;;;;;24.67;10.90;;;2.90;99.90;;;;;;5075846;28;20032;-83
2022/12/03 05:30:52;;;;;;;23.83;11.10;;;2.70;99.90;;;;;;5058985;28;20048;-82
2022/12/03 05:33:22;;;;;;;22.02;10.73;;;3.30;99.90;;;;;;5092028;28;20040;-83
2022/12/03 05:35:48;;;;;;;24.27;11.77;;;2.70;99.90;;;;;;5095787;28;20454;-83
2022/12/03 05:38:15;;;;;;;20.55;10.00;;;2.70;99.90;;;;;;5079152;28;20040;-83
2022/12/03 05:40:42;;;;;;;23.95;11.27;;;2.70;99.90;;;;;;5079189;28;20044;-82
2022/12/03 05:43:08;;;;;;;23.02;11.00;;;2.70;99.90;;;;;;5062561;28;20178;-83
2022/12/03 05:45:37;;;;;;;23.35;10.68;;;2.60;99.90;;;;;;5078978;28;20047;-82
2022/12/03 05:48:07;;;;;;;20.40;9.82;;;2.60;99.90;;;;;;5078935;28;20488;-83
2022/12/03 05:50:36;;;;;;;20.83;11.05;;;2.60;99.90;;;;;;5095789;28;20044;-82
2022/12/03 05:53:03;;;;;;;20.30;10.20;;;3.30;99.90;;;;;;5112164;28;20487;-83
2022/12/03 05:55:30;;;;;;;23.70;11.13;;;2.70;99.90;;;;;;5095488;28;20036;-83
2022/12/03 05:58:00;;;;;;;22.88;10.70;;;2.60;99.90;;;;;;5096535;28;20032;-83
2022/12/03 06:00:29;;;;;;;19.73;10.88;;;2.60;99.90;;;;;;5095394;28;20032;-83
2022/12/03 06:02:57;;;;;;;23.02;10.20;;;2.10;99.90;;;;;;5111883;28;20071;-83
2022/12/03 06:05:24;;;;;;;22.38;10.68;;;2.60;99.90;;;;;;5062335;28;20121;-83
2022/12/03 06:07:51;;;;;;;22.15;10.88;;;3.50;99.90;;;;;;5062531;28;20467;-83
2022/12/03 06:10:21;;;;;;;21.80;11.00;;;2.90;99.90;;;;;;5101010;28;20492;-83
2022/12/03 06:12:48;;;;;;;22.38;10.43;;;2.60;99.90;;;;;;5112238;28;20040;-83
2022/12/03 06:15:16;;;;;;;22.08;10.90;;;2.60;99.90;;;;;;5095136;28;20400;-83
2022/12/03 06:17:43;;;;;;;21.23;10.88;;;2.60;99.90;;;;;;5111697;28;20057;-82
2022/12/03 06:20:13;;;;;;;22.65;10.52;;;2.50;99.90;;;;;;5062016;28;20036;-83
2022/12/03 06:22:39;;;;;;;23.67;11.40;;;2.60;99.90;;;;;;5095140;28;20070;-83
2022/12/03 06:25:07;;;;;;;23.00;10.45;;;2.60;99.90;;;;;;5078450;28;20044;-83
2022/12/03 06:27:33;;;;;;;23.75;11.27;;;2.50;99.90;;;;;;5095112;28;20055;-82
2022/12/03 06:30:01;;;;;;;22.33;10.75;;;2.50;99.90;;;;;;5078379;28;20500;-83
2022/12/03 06:32:27;;;;;;;21.58;10.52;;;2.50;99.90;;;;;;5061831;28;20036;-83
2022/12/03 06:34:54;;;;;;;30.80;11.82;;;3.30;99.90;;;;;;5078370;28;20043;-83
2022/12/03 06:37:21;;;;;;;26.90;12.02;;;2.00;99.90;;;;;;5061950;28;20043;-83
2022/12/03 06:39:47;;;;;;;23.55;10.52;;;2.50;99.90;;;;;;5054950;28;20036;-83
2022/12/03 06:42:14;;;;;;;19.23;9.82;;;3.00;99.90;;;;;;5064901;28;20028;-83
2022/12/03 06:44:41;;;;;;;27.20;12.20;;;2.50;99.90;;;;;;5077515;28;20097;-83
2022/12/03 06:47:07;;;;;;;23.27;11.68;;;2.50;99.90;;;;;;5061670;28;20583;-83
2022/12/03 06:49:34;;;;;;;23.20;11.00;;;2.60;99.90;;;;;;5061163;28;20039;-83
2022/12/03 06:52:01;;;;;;;27.08;11.27;;;2.40;99.90;;;;;;5078035;28;20047;-83
2022/12/03 06:54:27;;;;;;;25.75;11.88;;;2.40;99.90;;;;;;5060996;28;20078;-83
2022/12/03 06:56:54;;;;;;;26.30;11.32;;;2.40;99.90;;;;;;5077962;28;20036;-82
2022/12/03 06:59:21;;;;;;;24.20;11.02;;;2.40;99.90;;;;;;5061278;28;20127;-82
2022/12/03 07:01:47;;;;;;;19.98;9.43;;;2.40;99.90;;;;;;5077880;28;20031;-83
2022/12/03 07:04:14;;;;;;;20.05;9.15;;;2.70;99.90;;;;;;5077410;28;20060;-83
2022/12/03 07:06:41;;;;;;;21.63;8.35;;;3.10;99.90;;;;;;5077223;28;20043;-82
2022/12/03 07:09:07;;;;;;;23.38;9.75;;;2.40;99.90;;;;;;5094335;28;20048;-83
2022/12/03 07:11:39;;;;;;;20.80;9.07;;;2.40;99.90;;;;;;5061352;28;20043;-83
2022/12/03 07:14:07;;;;;;;22.83;9.13;;;2.30;99.90;;;;;;5062277;28;20119;-83
2022/12/03 07:16:35;;;;;;;25.42;9.68;;;2.30;99.90;;;;;;5093777;28;20404;-83
2022/12/03 07:19:02;;;;;;;23.40;10.20;;;2.30;99.90;;;;;;5093900;28;20036;-83
2022/12/03 07:21:29;;;;;;;22.83;9.25;;;2.30;99.90;;;;;;5076793;28;20047;-83
2022/12/03 07:23:56;;;;;;;22.42;9.85;;;2.90;99.90;;;;;;5076933;28;20476;-83
2022/12/03 07:26:22;;;;;;;22.40;9.52;;;2.30;99.90;;;;;;5060776;28;20050;-83
2022/12/03 07:28:49;;;;;;;21.13;9.90;;;2.30;99.90;;;;;;5076678;28;20047;-82
2022/12/03 07:31:16;;;;;;;23.58;8.55;;;2.30;99.90;;;;;;5076679;28;20047;-83
2022/12/03 07:33:43;;;;;;;27.08;9.57;;;2.30;99.90;;;;;;5092799;28;20126;-82
2022/12/03 07:36:09;;;;;;;22.38;9.60;;;2.30;99.90;;;;;;5059790;28;20040;-82
2022/12/03 07:38:36;;;;;;;23.75;9.13;;;2.30;99.90;;;;;;5072833;28;20409;-82
2022/12/03 07:41:03;;;;;;;30.35;9.02;;;2.20;99.90;;;;;;5087278;28;20416;-82
2022/12/03 07:43:30;;;;;;;20.77;8.55;;;2.20;99.90;;;;;;5076100;28;20063;-83
2022/12/03 07:45:56;;;;;;;23.60;8.43;;;2.20;99.90;;;;;;5059849;28;20055;-83
2022/12/03 07:48:23;;;;;;;21.38;8.48;;;2.20;99.90;;;;;;5059920;28;20044;-82
2022/12/03 07:50:50;;;;;;;24.08;8.60;;;2.20;99.90;;;;;;5059943;28;20071;-83
2022/12/03 07:53:17;;;;;;;19.00;8.48;;;2.20;99.90;;;;;;5109601;28;20550;-83
2022/12/03 07:55:43;;;;;;;21.20;8.10;;;2.20;99.90;;;;;;5076573;28;20040;-83
2022/12/03 07:58:10;;;;;;;21.55;8.73;;;3.00;99.90;;;;;;5075768;28;20047;-83
2022/12/03 08:00:37;;;;;;;23.45;9.48;;;2.80;99.90;;;;;;5059785;28;20433;-82
2022/12/03 08:03:03;;;;;;;24.38;9.35;;;2.10;99.90;;;;;;5076619;28;20442;-83
2022/12/03 08:05:30;;;;;;;21.08;8.50;;;3.00;99.90;;;;;;5075914;28;20048;-83
2022/12/03 08:07:57;;;;;;;19.52;7.82;;;2.10;99.90;;;;;;5055013;28;20041;-82
2022/12/03 08:10:25;;;;;;;18.50;8.48;;;2.10;99.90;;;;;;5086743;28;20043;-83
2022/12/03 08:12:52;;;;;;;18.95;8.02;;;2.20;99.90;;;;;;5099744;28;20058;-82
2022/12/03 08:15:25;;;;;;;20.13;8.55;;;2.30;99.90;;;;;;5076282;28;20084;-83
2022/12/03 08:17:57;;;;;;;18.52;7.50;;;2.80;99.90;;;;;;5109559;28;20040;-83
2022/12/03 08:20:27;;;;;;;19.67;8.02;;;2.10;99.90;;;;;;5109462;28;20114;-83
2022/12/03 08:22:55;;;;;;;20.10;8.38;;;2.40;99.90;;;;;;5092722;28;20467;-83
2022/12/03 08:25:27;;;;;;;20.45;8.63;;;2.00;99.90;;;;;;5092901;28;20047;-83
2022/12/03 08:27:59;;;;;;;24.25;8.88;;;2.20;99.90;;;;;;5092721;28;20449;-83
2022/12/03 08:30:26;;;;;;;20.33;8.00;;;2.00;99.90;;;;;;5089786;28;20044;-83
2022/12/03 08:32:53;;;;;;;20.38;8.27;;;2.40;99.90;;;;;;5042073;28;20044;-83
2022/12/03 08:35:24;;;;;;;20.20;8.48;;;2.00;99.90;;;;;;5090768;28;20510;-83
2022/12/03 08:38:00;;;;;;;22.23;7.82;;;2.00;99.90;;;;;;5092252;28;20112;-82
2022/12/03 08:40:42;;;;;;;21.65;8.30;;;2.10;99.90;;;;;;5092696;28;20123;-83
2022/12/03 08:43:19;;;;;;;20.20;7.70;;;2.00;99.90;;;;;;5092532;28;20123;-83
2022/12/03 08:45:48;;;;;;;19.42;7.80;;;2.00;99.90;;;;;;5089267;28;20086;-83
2022/12/03 08:48:18;;;;;;;21.70;7.93;;;2.00;99.90;;;;;;5072439;28;20040;-83
2022/12/03 08:50:45;;;;;;;20.30;8.25;;;2.00;99.90;;;;;;5072603;28;20040;-82
2022/12/03 08:53:12;;;;;;;19.50;7.90;;;2.60;99.90;;;;;;5072310;28;20673;-83
2022/12/03 08:55:50;;;;;;;22.60;9.25;;;2.30;99.90;;;;;;5089069;28;20041;-83
2022/12/03 08:58:36;;;;;;;21.33;8.75;;;2.00;99.90;;;;;;5072429;28;20066;-83
2022/12/03 09:01:09;;;;;;;25.38;8.75;;;2.00;99.90;;;;;;5088787;28;20048;-83
2022/12/03 09:03:38;;;;;;;29.30;9.43;;;2.20;99.90;;;;;;5087964;28;20494;-83
2022/12/03 09:06:05;;;;;;;21.27;9.45;;;2.00;99.90;;;;;;5098919;28;20517;-83
2022/12/03 09:08:32;;;;;;;23.92;9.05;;;2.00;99.90;;;;;;5074729;28;20032;-82
2022/12/03 09:11:00;;;;;;;23.90;10.00;;;2.00;99.90;;;;;;5062543;28;20043;-82
2022/12/03 09:13:26;;;;;;;23.15;9.25;;;2.00;99.90;;;;;;5094709;28;20040;-82
2022/12/03 09:15:53;;;;;;;23.15;7.90;;;3.10;99.90;;;;;;5063434;28;20032;-82
2022/12/03 09:18:19;;;;;;;24.30;9.52;;;2.80;99.90;;;;;;5071541;28;20041;-83
2022/12/03 09:20:46;;;;;;;20.88;8.77;;;1.90;99.90;;;;;;5051977;28;20032;-83
2022/12/03 09:23:13;;;;;;;20.83;8.60;;;2.40;99.90;;;;;;5092951;28;20044;-83
2022/12/03 09:25:39;;;;;;;23.35;8.00;;;2.80;99.90;;;;;;5081264;28;20051;-83
2022/12/03 09:28:07;;;;;;;19.95;8.82;;;2.00;99.90;;;;;;5096003;28;20064;-83
2022/12/03 09:30:33;;;;;;;19.88;8.52;;;2.80;99.90;;;;;;5079668;28;20044;-83
2022/12/03 09:33:00;;;;;;;22.25;8.75;;;1.80;99.90;;;;;;5062951;28;20036;-82
2022/12/03 09:35:27;;;;;;;24.65;9.00;;;1.90;99.90;;;;;;5079508;28;20066;-83
2022/12/03 09:37:54;;;;;;;21.10;8.68;;;1.80;99.90;;;;;;5062647;28;20032;-82
2022/12/03 09:40:21;;;;;;;23.13;8.25;;;2.50;99.90;;;;;;5071580;28;20444;-83
2022/12/03 09:42:50;;;;;;;23.40;8.75;;;1.80;99.90;;;;;;5090865;28;20043;-83
2022/12/03 09:45:17;;;;;;;23.60;9.00;;;1.80;99.90;;;;;;5073787;28;20086;-83
2022/12/03 09:47:46;;;;;;;25.92;9.10;;;1.80;99.90;;;;;;5114718;28;20484;-83
2022/12/03 09:50:19;;;;;;;26.75;9.07;;;2.10;99.90;;;;;;5086732;28;20128;-83
2022/12/03 09:52:48;;;;;;;24.48;9.38;;;1.80;99.90;;;;;;5092963;28;20040;-83
2022/12/03 09:55:20;;;;;;;28.23;9.73;;;1.80;99.90;;;;;;5084251;28;20043;-83
2022/12/03 09:57:47;;;;;;;24.15;10.00;;;1.80;99.90;;;;;;5079958;28;20041;-82
2022/12/03 10:00:19;;;;;;;26.15;9.13;;;2.00;99.90;;;;;;5078977;28;20557;-83
2022/12/03 10:02:47;;;;;;;28.13;9.02;;;1.90;99.90;;;;;;5079171;28;20048;-83
2022/12/03 10:05:14;;;;;;;25.40;9.10;;;1.90;99.90;;;;;;5106514;28;20057;-83
2022/12/03 10:07:41;;;;;;;23.63;9.10;;;1.90;99.90;;;;;;5083982;28;20066;-83
2022/12/03 10:10:17;;;;;;;26.17;9.43;;;1.90;99.90;;;;;;5070799;28;20041;-83
2022/12/03 10:12:44;;;;;;;27.55;9.02;;;1.90;99.90;;;;;;5094727;28;20810;-82
2022/12/03 10:15:17;;;;;;;20.88;8.80;;;1.90;99.90;;;;;;5076126;28;20040;-82
2022/12/03 10:17:46;;;;;;;25.63;9.48;;;2.00;99.90;;;;;;5111775;28;20042;-83
2022/12/03 10:20:15;;;;;;;22.25;9.10;;;1.90;99.90;;;;;;5094003;28;20119;-83
2022/12/03 10:22:42;;;;;;;24.95;9.50;;;2.20;99.90;;;;;;5084038;28;20032;-82
2022/12/03 10:25:12;;;;;;;22.05;9.20;;;2.00;99.90;;;;;;5061178;28;20823;-83
2022/12/03 10:27:39;;;;;;;22.50;8.60;;;2.00;99.90;;;;;;5110889;28;20089;-83
2022/12/03 10:30:21;;;;;;;24.23;8.88;;;2.00;99.90;;;;;;5094361;28;20044;-83
2022/12/03 10:32:49;;;;;;;25.88;8.73;;;2.00;99.90;;;;;;5093628;28;20388;-83
2022/12/03 10:35:22;;;;;;;23.83;8.60;;;1.90;99.90;;;;;;5077752;28;20032;-83
2022/12/03 10:38:21;;;;;;;25.48;9.77;;;1.90;99.90;;;;;;5090206;28;20047;-82
2022/12/03 10:40:49;;;;;;;22.45;8.43;;;2.00;99.90;;;;;;5093705;28;20036;-83
2022/12/03 10:43:18;;;;;;;24.55;9.40;;;2.00;99.90;;;;;;5110864;28;20044;-83
2022/12/03 10:45:47;;;;;;;23.50;8.63;;;2.00;99.90;;;;;;5094615;28;20130;-83
2022/12/03 10:48:19;;;;;;;23.48;8.85;;;2.10;99.90;;;;;;5093878;28;20044;-83
2022/12/03 10:50:49;;;;;;;25.55;8.52;;;2.00;99.90;;;;;;5111240;28;20131;-83
2022/12/03 10:53:17;;;;;;;21.45;9.15;;;2.00;99.90;;;;;;5094072;28;20040;-83
2022/12/03 10:55:46;;;;;;;22.38;9.25;;;2.00;99.90;;;;;;5077653;28;20039;-83
2022/12/03 10:58:22;;;;;;;23.45;8.93;;;2.00;99.90;;;;;;5094603;28;20118;-83
2022/12/03 11:00:51;;;;;;;24.45;9.02;;;2.00;99.90;;;;;;5110768;28;20504;-83
2022/12/03 11:03:23;;;;;;;22.90;9.00;;;2.10;99.90;;;;;;5122327;28;20435;-80
2022/12/03 11:06:05;;;;;;;25.08;9.70;;;2.70;99.90;;;;;;5087611;28;20055;-82
2022/12/03 11:08:35;;;;;;;22.08;9.50;;;2.10;99.90;;;;;;5079310;28;20059;-82
2022/12/03 11:11:22;;;;;;;23.73;8.75;;;2.10;99.90;;;;;;5110419;28;20042;-83
2022/12/03 11:13:56;;;;;;;24.17;9.63;;;2.10;99.90;;;;;;5093076;28;20123;-83
2022/12/03 11:16:38;;;;;;;24.38;9.00;;;2.10;99.90;;;;;;5099028;28;20032;-82
2022/12/03 11:19:11;;;;;;;26.60;9.18;;;2.10;99.90;;;;;;5112605;28;20067;-83
2022/12/03 11:22:03;;;;;;;24.10;8.77;;;2.40;99.90;;;;;;5091376;28;20036;-82
2022/12/03 11:24:32;;;;;;;21.75;9.00;;;2.10;99.90;;;;;;5093253;28;20097;-82
2022/12/03 11:26:59;;;;;;;23.35;8.70;;;2.10;99.90;;;;;;5082168;28;20043;-83
2022/12/03 11:29:51;;;;;;;24.73;8.38;;;2.40;99.90;;;;;;5101862;28;20489;-83
2022/12/03 11:32:36;;;;;;;26.80;9.40;;;2.10;99.90;;;;;;5111246;28;20044;-82
2022/12/03 11:35:10;;;;;;;24.58;9.30;;;2.10;99.90;;;;;;5098814;28;20087;-81
2022/12/03 11:37:39;;;;;;;23.67;8.18;;;2.00;99.90;;;;;;5106291;28;20499;-82
2022/12/03 11:40:15;;;;;;;22.75;9.32;;;2.10;99.90;;;;;;5076853;28;20178;-83
2022/12/03 11:42:42;;;;;;;22.95;8.55;;;2.10;99.90;;;;;;5109959;28;20041;-83
2022/12/03 11:45:09;;;;;;;24.63;9.02;;;2.10;99.90;;;;;;5076663;28;20043;-82
2022/12/03 11:48:06;;;;;;;25.15;8.48;;;2.20;99.90;;;;;;5109085;28;20032;-83
2022/12/03 11:50:41;;;;;;;19.15;8.30;;;2.90;99.90;;;;;;5087485;28;20063;-83
2022/12/03 11:53:25;;;;;;;19.40;8.20;;;2.20;99.90;;;;;;5092974;28;20051;-83
2022/12/03 11:56:07;;;;;;;22.65;9.05;;;2.20;99.90;;;;;;5095659;28;20040;-83
2022/12/03 11:58:37;;;;;;;24.35;8.50;;;2.20;99.90;;;;;;5088689;28;20036;-83
2022/12/03 12:01:07;;;;;;;26.50;9.38;;;2.20;99.90;;;;;;5077521;28;20048;-81
2022/12/03 12:03:35;;;;;;;20.35;8.55;;;2.20;99.90;;;;;;5092443;28;20171;-83
2022/12/03 12:06:06;;;;;;;20.13;7.75;;;2.30;99.90;;;;;;5109996;28;20051;-82
2022/12/03 12:08:37;;;;;;;21.25;8.65;;;2.30;99.90;;;;;;5092923;28;20563;-82
2022/12/03 12:11:35;;;;;;;24.90;9.35;;;2.50;99.90;;;;;;5109239;28;20047;-81
2022/12/03 12:14:03;;;;;;;29.55;12.05;;;2.40;99.90;;;;;;5091821;28;20083;-82
2022/12/03 12:16:51;;;;;;;30.27;12.18;;;2.30;99.90;;;;;;5112184;28;20490;-81
2022/12/03 12:19:41;;;;;;;27.08;12.30;;;2.20;99.90;;;;;;5092809;28;20043;-82
2022/12/03 12:22:15;;;;;;;23.20;10.77;;;2.30;99.90;;;;;;5109571;28;20050;-84
2022/12/03 12:24:50;;;;;;;26.70;12.38;;;2.30;99.90;;;;;;5092261;28;20121;-84
2022/12/03 12:27:30;;;;;;;26.63;11.70;;;2.30;99.90;;;;;;5092346;28;20474;-84
2022/12/03 12:30:04;;;;;;;30.10;12.23;;;2.30;99.90;;;;;;5092916;28;20351;-83
2022/12/03 12:32:40;;;;;;;26.45;11.70;;;2.30;99.90;;;;;;5092403;28;20048;-84
2022/12/03 12:35:20;;;;;;;32.40;13.38;;;2.30;99.90;;;;;;5092615;28;20063;-83
2022/12/03 12:37:54;;;;;;;27.60;12.40;;;2.30;99.90;;;;;;5109261;28;20050;-84
2022/12/03 12:40:30;;;;;;;26.25;11.20;;;2.30;99.90;;;;;;5092729;28;20094;-84
2022/12/03 12:43:18;;;;;;;31.73;12.98;;;2.30;99.90;;;;;;5109053;28;20036;-84
2022/12/03 12:45:45;;;;;;;26.13;11.77;;;2.30;99.90;;;;;;5092563;28;20075;-84
2022/12/03 12:48:33;;;;;;;28.90;11.43;;;2.30;99.90;;;;;;5075705;28;20457;-84
2022/12/03 12:51:08;;;;;;;27.10;11.90;;;2.30;99.90;;;;;;5109333;28;20040;-85
2022/12/03 12:53:37;;;;;;;26.67;11.38;;;2.30;99.90;;;;;;5108611;28;20040;-84
2022/12/03 12:56:23;;;;;;;33.60;11.32;;;2.30;99.90;;;;;;5076173;28;20036;-84
2022/12/03 12:58:51;;;;;;;26.23;11.45;;;2.30;99.90;;;;;;5092575;28;20042;-84
2022/12/03 13:01:30;;;;;;;26.35;12.40;;;2.70;99.90;;;;;;5076183;28;20032;-83
2022/12/03 13:03:58;;;;;;;27.02;11.88;;;2.20;99.90;;;;;;5081243;28;20056;-84
2022/12/03 13:06:27;;;;;;;27.48;12.20;;;2.20;99.90;;;;;;5091917;28;20060;-84
2022/12/03 13:08:54;;;;;;;26.85;11.38;;;3.00;99.90;;;;;;5092542;28;20450;-84
2022/12/03 13:11:23;;;;;;;24.73;11.32;;;2.70;99.90;;;;;;5092376;28;20082;-84